sensor_id;sensor_type;location;lat;lon;timestamp;temperature;humidity
15906;DHT22;8051;50.820;4.884;2023-03-21T00:00:44;10.10;99.90
15906;DHT22;8051;50.820;4.884;2023-03-21T00:03:14;10.10;99.90
15906;DHT22;8051;50.820;4.884;2023-03-21T00:05:43;10.10;99.90
15906;DHT22;8051;50.820;4.884;2023-03-21T00:08:14;10.10;99.90
15906;DHT22;8051;50.820;4.884;2023-03-21T00:10:42;10.10;99.90
15906;DHT22;8051;50.820;4.884;2023-03-21T00:13:09;10.10;99.90
15906;DHT22;8051;50.820;4.884;2023-03-21T00:15:38;10.00;99.90
15906;DHT22;8051;50.820;4.884;2023-03-21T00:18:16;10.00;99.90
15906;DHT22;8051;50.820;4.884;2023-03-21T00:20:55;10.00;99.90
15906;DHT22;8051;50.820;4.884;2023-03-21T00:23:23;10.00;99.90
15906;DHT22;8051;50.820;4.884;2023-03-21T00:25:51;10.00;99.90
15906;DHT22;8051;50.820;4.884;2023-03-21T00:28:19;10.00;99.90
15906;DHT22;8051;50.820;4.884;2023-03-21T00:30:47;10.00;99.90
15906;DHT22;8051;50.820;4.884;2023-03-21T00:33:16;10.00;99.90
15906;DHT22;8051;50.820;4.884;2023-03-21T00:35:45;9.90;99.90
15906;DHT22;8051;50.820;4.884;2023-03-21T00:38:13;9.90;99.90
15906;DHT22;8051;50.820;4.884;2023-03-21T00:40:41;9.90;99.90
15906;DHT22;8051;50.820;4.884;2023-03-21T00:43:09;10.00;99.90
15906;DHT22;8051;50.820;4.884;2023-03-21T00:45:39;10.00;99.90
15906;DHT22;8051;50.820;4.884;2023-03-21T00:48:07;10.00;99.90
15906;DHT22;8051;50.820;4.884;2023-03-21T00:50:36;10.00;99.90
15906;DHT22;8051;50.820;4.884;2023-03-21T00:53:04;10.00;99.90
15906;DHT22;8051;50.820;4.884;2023-03-21T00:55:32;10.00;99.90
15906;DHT22;8051;50.820;4.884;2023-03-21T00:57:59;10.00;99.90
15906;DHT22;8051;50.820;4.884;2023-03-21T01:00:27;10.00;99.90
15906;DHT22;8051;50.820;4.884;2023-03-21T01:02:54;9.90;99.90
15906;DHT22;8051;50.820;4.884;2023-03-21T01:05:32;10.00;99.90
15906;DHT22;8051;50.820;4.884;2023-03-21T01:08:19;10.00;99.90
15906;DHT22;8051;50.820;4.884;2023-03-21T01:10:48;10.00;99.90
15906;DHT22;8051;50.820;4.884;2023-03-21T01:13:17;9.90;99.90
15906;DHT22;8051;50.820;4.884;2023-03-21T01:15:47;9.90;99.90
15906;DHT22;8051;50.820;4.884;2023-03-21T01:18:16;9.80;99.90
15906;DHT22;8051;50.820;4.884;2023-03-21T01:20:44;9.80;99.90
15906;DHT22;8051;50.820;4.884;2023-03-21T01:23:13;9.80;99.90
15906;DHT22;8051;50.820;4.884;2023-03-21T01:25:42;9.70;99.90
15906;DHT22;8051;50.820;4.884;2023-03-21T01:28:09;9.70;99.90
15906;DHT22;8051;50.820;4.884;2023-03-21T01:30:37;9.70;99.90
15906;DHT22;8051;50.820;4.884;2023-03-21T01:33:04;9.70;99.90
15906;DHT22;8051;50.820;4.884;2023-03-21T01:35:35;9.80;99.90
15906;DHT22;8051;50.820;4.884;2023-03-21T01:38:02;9.80;99.90
15906;DHT22;8051;50.820;4.884;2023-03-21T01:40:29;9.80;99.90
15906;DHT22;8051;50.820;4.884;2023-03-21T01:42:58;9.80;99.90
15906;DHT22;8051;50.820;4.884;2023-03-21T01:48:49;9.90;99.90
15906;DHT22;8051;50.820;4.884;2023-03-21T01:51:18;9.90;99.90
15906;DHT22;8051;50.820;4.884;2023-03-21T01:53:46;9.90;99.90
15906;DHT22;8051;50.820;4.884;2023-03-21T01:56:19;9.90;99.90
15906;DHT22;8051;50.820;4.884;2023-03-21T01:58:51;9.90;99.90
15906;DHT22;8051;50.820;4.884;2023-03-21T02:01:20;10.00;99.90
15906;DHT22;8051;50.820;4.884;2023-03-21T02:03:49;10.00;99.90
15906;DHT22;8051;50.820;4.884;2023-03-21T02:06:28;9.90;99.90
15906;DHT22;8051;50.820;4.884;2023-03-21T02:09:01;9.90;99.90
15906;DHT22;8051;50.820;4.884;2023-03-21T02:11:29;9.90;99.90
15906;DHT22;8051;50.820;4.884;2023-03-21T02:13:59;9.90;99.90
15906;DHT22;8051;50.820;4.884;2023-03-21T02:16:42;9.90;99.90
15906;DHT22;8051;50.820;4.884;2023-03-21T02:19:37;9.90;99.90
15906;DHT22;8051;50.820;4.884;2023-03-21T02:25:30;10.00;99.90
15906;DHT22;8051;50.820;4.884;2023-03-21T02:28:05;10.00;99.90
15906;DHT22;8051;50.820;4.884;2023-03-21T02:31:05;10.00;99.90
15906;DHT22;8051;50.820;4.884;2023-03-21T02:37:02;10.00;99.90
15906;DHT22;8051;50.820;4.884;2023-03-21T02:39:40;10.00;99.90
15906;DHT22;8051;50.820;4.884;2023-03-21T02:42:19;10.00;99.90
15906;DHT22;8051;50.820;4.884;2023-03-21T02:44:55;10.00;99.90
15906;DHT22;8051;50.820;4.884;2023-03-21T02:47:29;10.10;99.90
15906;DHT22;8051;50.820;4.884;2023-03-21T02:50:05;10.10;99.90
15906;DHT22;8051;50.820;4.884;2023-03-21T02:52:36;10.10;99.90
15906;DHT22;8051;50.820;4.884;2023-03-21T02:55:06;10.10;99.90
15906;DHT22;8051;50.820;4.884;2023-03-21T02:57:40;10.10;99.90
15906;DHT22;8051;50.820;4.884;2023-03-21T03:00:11;10.10;99.90
15906;DHT22;8051;50.820;4.884;2023-03-21T03:02:41;10.20;99.90
15906;DHT22;8051;50.820;4.884;2023-03-21T03:05:14;10.20;99.90
15906;DHT22;8051;50.820;4.884;2023-03-21T03:07:50;10.20;99.90
15906;DHT22;8051;50.820;4.884;2023-03-21T03:10:36;10.20;99.90
15906;DHT22;8051;50.820;4.884;2023-03-21T03:13:14;10.20;99.90
15906;DHT22;8051;50.820;4.884;2023-03-21T03:15:58;10.20;99.90
15906;DHT22;8051;50.820;4.884;2023-03-21T03:18:36;10.20;99.90
15906;DHT22;8051;50.820;4.884;2023-03-21T03:21:09;10.20;99.90
15906;DHT22;8051;50.820;4.884;2023-03-21T03:23:43;10.30;99.90
15906;DHT22;8051;50.820;4.884;2023-03-21T03:26:14;10.30;99.90
15906;DHT22;8051;50.820;4.884;2023-03-21T03:28:47;10.40;99.90
15906;DHT22;8051;50.820;4.884;2023-03-21T03:31:19;10.40;99.90
15906;DHT22;8051;50.820;4.884;2023-03-21T03:33:53;10.40;99.90
15906;DHT22;8051;50.820;4.884;2023-03-21T03:36:26;10.40;99.90
15906;DHT22;8051;50.820;4.884;2023-03-21T03:38:57;10.40;99.90
15906;DHT22;8051;50.820;4.884;2023-03-21T03:41:26;10.40;99.90
15906;DHT22;8051;50.820;4.884;2023-03-21T03:43:56;10.40;99.90
15906;DHT22;8051;50.820;4.884;2023-03-21T03:46:28;10.40;99.90
15906;DHT22;8051;50.820;4.884;2023-03-21T03:49:01;10.40;99.90
15906;DHT22;8051;50.820;4.884;2023-03-21T03:51:34;10.40;99.90
15906;DHT22;8051;50.820;4.884;2023-03-21T03:54:07;10.40;99.90
15906;DHT22;8051;50.820;4.884;2023-03-21T03:56:37;10.40;99.90
15906;DHT22;8051;50.820;4.884;2023-03-21T03:59:05;10.40;99.90
15906;DHT22;8051;50.820;4.884;2023-03-21T04:01:33;10.40;99.90
15906;DHT22;8051;50.820;4.884;2023-03-21T04:04:01;10.40;99.90
15906;DHT22;8051;50.820;4.884;2023-03-21T04:06:28;10.40;99.90
15906;DHT22;8051;50.820;4.884;2023-03-21T04:08:57;10.40;99.90
15906;DHT22;8051;50.820;4.884;2023-03-21T04:11:26;10.40;99.90
15906;DHT22;8051;50.820;4.884;2023-03-21T04:13:54;10.40;99.90
15906;DHT22;8051;50.820;4.884;2023-03-21T04:16:21;10.30;99.90
15906;DHT22;8051;50.820;4.884;2023-03-21T04:18:49;10.40;99.90
15906;DHT22;8051;50.820;4.884;2023-03-21T04:21:17;10.30;99.90
15906;DHT22;8051;50.820;4.884;2023-03-21T04:23:44;10.40;99.90
15906;DHT22;8051;50.820;4.884;2023-03-21T04:26:12;10.30;99.90
15906;DHT22;8051;50.820;4.884;2023-03-21T04:28:40;10.30;99.90
15906;DHT22;8051;50.820;4.884;2023-03-21T04:31:08;10.30;99.90
15906;DHT22;8051;50.820;4.884;2023-03-21T04:33:35;10.20;99.90
15906;DHT22;8051;50.820;4.884;2023-03-21T04:36:04;10.20;99.90
15906;DHT22;8051;50.820;4.884;2023-03-21T04:38:34;10.20;99.90
15906;DHT22;8051;50.820;4.884;2023-03-21T04:41:02;10.20;99.90
15906;DHT22;8051;50.820;4.884;2023-03-21T04:43:29;10.20;99.90
15906;DHT22;8051;50.820;4.884;2023-03-21T04:45:58;10.20;99.90
15906;DHT22;8051;50.820;4.884;2023-03-21T04:48:26;10.20;99.90
15906;DHT22;8051;50.820;4.884;2023-03-21T04:50:53;10.20;99.90
15906;DHT22;8051;50.820;4.884;2023-03-21T04:53:21;10.20;99.90
15906;DHT22;8051;50.820;4.884;2023-03-21T04:55:48;10.20;99.90
15906;DHT22;8051;50.820;4.884;2023-03-21T04:58:16;10.20;99.90
15906;DHT22;8051;50.820;4.884;2023-03-21T05:00:45;10.20;99.90
15906;DHT22;8051;50.820;4.884;2023-03-21T05:03:14;10.20;99.90
15906;DHT22;8051;50.820;4.884;2023-03-21T05:05:45;10.20;99.90
15906;DHT22;8051;50.820;4.884;2023-03-21T05:08:14;10.20;99.90
15906;DHT22;8051;50.820;4.884;2023-03-21T05:10:42;10.30;99.90
15906;DHT22;8051;50.820;4.884;2023-03-21T05:13:09;10.30;99.90
15906;DHT22;8051;50.820;4.884;2023-03-21T05:15:37;10.30;99.90
15906;DHT22;8051;50.820;4.884;2023-03-21T05:18:04;10.30;99.90
15906;DHT22;8051;50.820;4.884;2023-03-21T05:20:39;10.30;99.90
15906;DHT22;8051;50.820;4.884;2023-03-21T05:23:08;10.30;99.90
15906;DHT22;8051;50.820;4.884;2023-03-21T05:25:37;10.30;99.90
15906;DHT22;8051;50.820;4.884;2023-03-21T05:28:06;10.30;99.90
15906;DHT22;8051;50.820;4.884;2023-03-21T05:30:33;10.20;99.90
15906;DHT22;8051;50.820;4.884;2023-03-21T05:33:01;10.20;99.90
15906;DHT22;8051;50.820;4.884;2023-03-21T05:35:28;10.20;99.90
15906;DHT22;8051;50.820;4.884;2023-03-21T05:37:57;10.20;99.90
15906;DHT22;8051;50.820;4.884;2023-03-21T05:40:26;10.20;99.90
15906;DHT22;8051;50.820;4.884;2023-03-21T05:42:53;10.20;99.90
15906;DHT22;8051;50.820;4.884;2023-03-21T05:45:21;10.20;99.90
15906;DHT22;8051;50.820;4.884;2023-03-21T05:47:48;10.20;99.90
15906;DHT22;8051;50.820;4.884;2023-03-21T05:50:16;10.30;99.90
15906;DHT22;8051;50.820;4.884;2023-03-21T05:52:44;10.30;99.90
15906;DHT22;8051;50.820;4.884;2023-03-21T05:55:12;10.30;99.90
15906;DHT22;8051;50.820;4.884;2023-03-21T05:57:40;10.30;99.90
15906;DHT22;8051;50.820;4.884;2023-03-21T06:00:08;10.20;99.90
15906;DHT22;8051;50.820;4.884;2023-03-21T06:02:36;10.20;99.90
15906;DHT22;8051;50.820;4.884;2023-03-21T06:05:05;10.20;99.90
15906;DHT22;8051;50.820;4.884;2023-03-21T06:07:33;10.20;99.90
15906;DHT22;8051;50.820;4.884;2023-03-21T06:10:01;10.20;99.90
15906;DHT22;8051;50.820;4.884;2023-03-21T06:12:30;10.20;99.90
15906;DHT22;8051;50.820;4.884;2023-03-21T06:14:58;10.20;99.90
15906;DHT22;8051;50.820;4.884;2023-03-21T06:17:26;10.20;99.90
15906;DHT22;8051;50.820;4.884;2023-03-21T06:19:54;10.20;99.90
15906;DHT22;8051;50.820;4.884;2023-03-21T06:22:21;10.30;99.90
15906;DHT22;8051;50.820;4.884;2023-03-21T06:24:49;10.30;99.90
15906;DHT22;8051;50.820;4.884;2023-03-21T06:27:16;10.30;99.90
15906;DHT22;8051;50.820;4.884;2023-03-21T06:29:45;10.30;99.90
15906;DHT22;8051;50.820;4.884;2023-03-21T06:32:12;10.40;99.90
15906;DHT22;8051;50.820;4.884;2023-03-21T06:34:41;10.30;99.90
15906;DHT22;8051;50.820;4.884;2023-03-21T06:37:08;10.30;99.90
15906;DHT22;8051;50.820;4.884;2023-03-21T06:39:36;10.30;99.90
15906;DHT22;8051;50.820;4.884;2023-03-21T06:42:03;10.40;99.90
15906;DHT22;8051;50.820;4.884;2023-03-21T06:44:30;10.40;99.90
15906;DHT22;8051;50.820;4.884;2023-03-21T06:46:59;10.50;99.90
15906;DHT22;8051;50.820;4.884;2023-03-21T06:49:27;10.50;99.90
15906;DHT22;8051;50.820;4.884;2023-03-21T06:51:54;10.50;99.90
15906;DHT22;8051;50.820;4.884;2023-03-21T06:54:22;10.50;99.90
15906;DHT22;8051;50.820;4.884;2023-03-21T06:56:50;10.60;99.90
15906;DHT22;8051;50.820;4.884;2023-03-21T06:59:17;10.60;99.90
15906;DHT22;8051;50.820;4.884;2023-03-21T07:01:44;10.60;99.90
15906;DHT22;8051;50.820;4.884;2023-03-21T07:04:13;10.60;99.90
15906;DHT22;8051;50.820;4.884;2023-03-21T07:06:41;10.50;99.90
15906;DHT22;8051;50.820;4.884;2023-03-21T07:09:08;10.40;99.90
15906;DHT22;8051;50.820;4.884;2023-03-21T07:11:36;10.20;99.90
15906;DHT22;8051;50.820;4.884;2023-03-21T07:14:03;10.20;99.90
15906;DHT22;8051;50.820;4.884;2023-03-21T07:16:31;10.10;99.90
15906;DHT22;8051;50.820;4.884;2023-03-21T07:18:59;10.10;99.90
15906;DHT22;8051;50.820;4.884;2023-03-21T07:21:27;10.10;99.90
15906;DHT22;8051;50.820;4.884;2023-03-21T07:23:55;10.20;99.90
15906;DHT22;8051;50.820;4.884;2023-03-21T07:26:22;10.10;99.90
15906;DHT22;8051;50.820;4.884;2023-03-21T07:28:50;9.90;99.90
15906;DHT22;8051;50.820;4.884;2023-03-21T07:31:18;9.80;99.90
15906;DHT22;8051;50.820;4.884;2023-03-21T07:33:46;9.70;99.90
15906;DHT22;8051;50.820;4.884;2023-03-21T07:36:14;9.60;99.90
15906;DHT22;8051;50.820;4.884;2023-03-21T07:38:44;9.60;99.90
15906;DHT22;8051;50.820;4.884;2023-03-21T07:41:12;9.60;99.90
15906;DHT22;8051;50.820;4.884;2023-03-21T07:43:40;9.60;99.90
15906;DHT22;8051;50.820;4.884;2023-03-21T07:46:07;9.60;99.90
15906;DHT22;8051;50.820;4.884;2023-03-21T07:48:35;9.70;99.90
15906;DHT22;8051;50.820;4.884;2023-03-21T07:51:03;9.70;99.90
15906;DHT22;8051;50.820;4.884;2023-03-21T07:53:31;9.80;99.90
15906;DHT22;8051;50.820;4.884;2023-03-21T07:56:00;9.90;99.90
15906;DHT22;8051;50.820;4.884;2023-03-21T07:58:27;10.00;99.90
15906;DHT22;8051;50.820;4.884;2023-03-21T08:00:55;10.00;99.90
15906;DHT22;8051;50.820;4.884;2023-03-21T08:03:24;10.10;99.90
15906;DHT22;8051;50.820;4.884;2023-03-21T08:05:54;10.20;99.90
15906;DHT22;8051;50.820;4.884;2023-03-21T08:08:21;10.30;99.90
15906;DHT22;8051;50.820;4.884;2023-03-21T08:10:49;10.40;99.90
15906;DHT22;8051;50.820;4.884;2023-03-21T08:13:18;10.40;99.90
15906;DHT22;8051;50.820;4.884;2023-03-21T08:15:45;10.60;99.90
15906;DHT22;8051;50.820;4.884;2023-03-21T08:18:13;10.70;99.90
15906;DHT22;8051;50.820;4.884;2023-03-21T08:20:40;10.90;99.90
15906;DHT22;8051;50.820;4.884;2023-03-21T08:23:08;11.10;99.90
15906;DHT22;8051;50.820;4.884;2023-03-21T08:25:35;11.20;99.90
15906;DHT22;8051;50.820;4.884;2023-03-21T08:28:03;11.20;99.90
15906;DHT22;8051;50.820;4.884;2023-03-21T08:30:32;11.30;99.90
15906;DHT22;8051;50.820;4.884;2023-03-21T08:33:00;11.30;99.90
15906;DHT22;8051;50.820;4.884;2023-03-21T08:35:28;11.30;99.90
15906;DHT22;8051;50.820;4.884;2023-03-21T08:37:56;11.40;99.90
15906;DHT22;8051;50.820;4.884;2023-03-21T08:40:24;11.40;99.90
15906;DHT22;8051;50.820;4.884;2023-03-21T08:42:51;11.40;99.90
15906;DHT22;8051;50.820;4.884;2023-03-21T08:45:19;11.40;99.90
15906;DHT22;8051;50.820;4.884;2023-03-21T08:47:49;11.50;99.90
15906;DHT22;8051;50.820;4.884;2023-03-21T08:50:18;11.50;99.90
15906;DHT22;8051;50.820;4.884;2023-03-21T08:52:46;11.40;99.90
15906;DHT22;8051;50.820;4.884;2023-03-21T08:55:14;11.30;99.90
15906;DHT22;8051;50.820;4.884;2023-03-21T08:57:43;11.30;99.90
15906;DHT22;8051;50.820;4.884;2023-03-21T09:00:13;11.30;99.90
15906;DHT22;8051;50.820;4.884;2023-03-21T09:02:44;11.20;99.90
15906;DHT22;8051;50.820;4.884;2023-03-21T09:05:14;11.30;99.90
15906;DHT22;8051;50.820;4.884;2023-03-21T09:07:43;11.30;99.90
15906;DHT22;8051;50.820;4.884;2023-03-21T09:10:12;11.30;99.90
15906;DHT22;8051;50.820;4.884;2023-03-21T09:12:40;11.30;99.90
15906;DHT22;8051;50.820;4.884;2023-03-21T09:15:08;11.30;99.90
15906;DHT22;8051;50.820;4.884;2023-03-21T09:17:37;11.40;99.90
15906;DHT22;8051;50.820;4.884;2023-03-21T09:20:09;11.40;99.90
15906;DHT22;8051;50.820;4.884;2023-03-21T09:22:45;11.40;99.90
15906;DHT22;8051;50.820;4.884;2023-03-21T09:25:14;11.50;99.90
15906;DHT22;8051;50.820;4.884;2023-03-21T09:27:42;11.50;99.90
15906;DHT22;8051;50.820;4.884;2023-03-21T09:30:11;11.60;99.90
15906;DHT22;8051;50.820;4.884;2023-03-21T09:32:40;11.60;99.90
15906;DHT22;8051;50.820;4.884;2023-03-21T09:35:08;11.50;99.90
15906;DHT22;8051;50.820;4.884;2023-03-21T09:37:37;11.60;99.90
15906;DHT22;8051;50.820;4.884;2023-03-21T09:40:16;11.50;99.90
15906;DHT22;8051;50.820;4.884;2023-03-21T09:42:54;11.50;99.90
15906;DHT22;8051;50.820;4.884;2023-03-21T09:45:31;11.50;99.90
15906;DHT22;8051;50.820;4.884;2023-03-21T09:48:01;11.60;99.90
15906;DHT22;8051;50.820;4.884;2023-03-21T09:50:34;11.70;99.90
15906;DHT22;8051;50.820;4.884;2023-03-21T09:53:05;11.90;99.90
15906;DHT22;8051;50.820;4.884;2023-03-21T09:55:38;12.10;99.90
15906;DHT22;8051;50.820;4.884;2023-03-21T09:58:14;12.40;99.90
15906;DHT22;8051;50.820;4.884;2023-03-21T10:00:48;12.60;99.90
15906;DHT22;8051;50.820;4.884;2023-03-21T10:03:20;12.80;99.90
15906;DHT22;8051;50.820;4.884;2023-03-21T10:05:51;12.90;99.90
15906;DHT22;8051;50.820;4.884;2023-03-21T10:08:25;13.00;99.90
15906;DHT22;8051;50.820;4.884;2023-03-21T10:10:57;13.10;99.90
15906;DHT22;8051;50.820;4.884;2023-03-21T10:13:29;13.20;99.90
15906;DHT22;8051;50.820;4.884;2023-03-21T10:16:00;13.10;99.90
15906;DHT22;8051;50.820;4.884;2023-03-21T10:18:31;13.00;99.90
15906;DHT22;8051;50.820;4.884;2023-03-21T10:20:59;13.10;99.90
15906;DHT22;8051;50.820;4.884;2023-03-21T10:23:28;13.10;99.90
15906;DHT22;8051;50.820;4.884;2023-03-21T10:25:59;13.20;99.90
15906;DHT22;8051;50.820;4.884;2023-03-21T10:28:30;13.30;99.90
15906;DHT22;8051;50.820;4.884;2023-03-21T10:31:01;13.40;99.90
15906;DHT22;8051;50.820;4.884;2023-03-21T10:33:34;13.40;99.90
15906;DHT22;8051;50.820;4.884;2023-03-21T10:36:05;13.50;99.90
15906;DHT22;8051;50.820;4.884;2023-03-21T10:38:34;13.60;99.90
15906;DHT22;8051;50.820;4.884;2023-03-21T10:41:06;13.50;99.90
15906;DHT22;8051;50.820;4.884;2023-03-21T10:43:35;13.50;99.90
15906;DHT22;8051;50.820;4.884;2023-03-21T10:46:12;13.60;99.90
15906;DHT22;8051;50.820;4.884;2023-03-21T10:48:43;13.60;99.90
15906;DHT22;8051;50.820;4.884;2023-03-21T10:51:16;13.70;99.90
15906;DHT22;8051;50.820;4.884;2023-03-21T10:53:48;13.70;99.90
15906;DHT22;8051;50.820;4.884;2023-03-21T10:56:22;13.70;99.90
15906;DHT22;8051;50.820;4.884;2023-03-21T10:58:52;13.70;99.90
15906;DHT22;8051;50.820;4.884;2023-03-21T11:01:26;13.70;99.90
15906;DHT22;8051;50.820;4.884;2023-03-21T11:03:58;13.80;99.90
15906;DHT22;8051;50.820;4.884;2023-03-21T11:06:28;14.00;99.90
15906;DHT22;8051;50.820;4.884;2023-03-21T11:09:00;14.00;99.90
15906;DHT22;8051;50.820;4.884;2023-03-21T11:11:35;14.10;99.90
15906;DHT22;8051;50.820;4.884;2023-03-21T11:14:05;14.10;99.90
15906;DHT22;8051;50.820;4.884;2023-03-21T11:16:37;14.20;99.90
15906;DHT22;8051;50.820;4.884;2023-03-21T11:19:13;14.30;99.90
15906;DHT22;8051;50.820;4.884;2023-03-21T11:21:41;14.40;99.90
15906;DHT22;8051;50.820;4.884;2023-03-21T11:24:13;14.60;99.90
15906;DHT22;8051;50.820;4.884;2023-03-21T11:26:44;14.80;99.90
15906;DHT22;8051;50.820;4.884;2023-03-21T11:29:27;15.10;99.90
15906;DHT22;8051;50.820;4.884;2023-03-21T11:31:57;15.40;99.90
15906;DHT22;8051;50.820;4.884;2023-03-21T11:34:32;15.40;99.90
15906;DHT22;8051;50.820;4.884;2023-03-21T11:37:01;15.40;99.90
15906;DHT22;8051;50.820;4.884;2023-03-21T11:39:34;15.40;99.90
15906;DHT22;8051;50.820;4.884;2023-03-21T11:44:58;15.50;99.90
15906;DHT22;8051;50.820;4.884;2023-03-21T11:47:27;15.80;99.90
15906;DHT22;8051;50.820;4.884;2023-03-21T11:49:54;16.10;99.90
15906;DHT22;8051;50.820;4.884;2023-03-21T11:52:28;15.90;99.90
15906;DHT22;8051;50.820;4.884;2023-03-21T11:55:17;15.70;99.90
15906;DHT22;8051;50.820;4.884;2023-03-21T11:57:57;15.40;99.90
15906;DHT22;8051;50.820;4.884;2023-03-21T12:00:30;15.30;99.90
15906;DHT22;8051;50.820;4.884;2023-03-21T12:03:29;15.50;99.90
15906;DHT22;8051;50.820;4.884;2023-03-21T12:06:01;15.50;99.90
15906;DHT22;8051;50.820;4.884;2023-03-21T12:08:37;15.50;99.90
15906;DHT22;8051;50.820;4.884;2023-03-21T12:11:18;15.50;99.90
15906;DHT22;8051;50.820;4.884;2023-03-21T12:14:00;15.50;99.90
15906;DHT22;8051;50.820;4.884;2023-03-21T12:16:59;15.50;99.90
15906;DHT22;8051;50.820;4.884;2023-03-21T12:22:40;15.70;99.90
15906;DHT22;8051;50.820;4.884;2023-03-21T12:25:15;15.90;99.90
15906;DHT22;8051;50.820;4.884;2023-03-21T12:27:51;15.80;99.90
15906;DHT22;8051;50.820;4.884;2023-03-21T12:30:31;15.90;99.90
15906;DHT22;8051;50.820;4.884;2023-03-21T12:33:13;16.00;99.90
15906;DHT22;8051;50.820;4.884;2023-03-21T12:35:53;16.00;99.90
15906;DHT22;8051;50.820;4.884;2023-03-21T12:38:23;16.10;99.90
15906;DHT22;8051;50.820;4.884;2023-03-21T12:41:05;16.20;99.90
15906;DHT22;8051;50.820;4.884;2023-03-21T12:43:42;16.30;99.90
15906;DHT22;8051;50.820;4.884;2023-03-21T12:46:16;16.40;99.90
15906;DHT22;8051;50.820;4.884;2023-03-21T12:48:47;16.30;99.90
15906;DHT22;8051;50.820;4.884;2023-03-21T12:51:19;16.20;99.90
15906;DHT22;8051;50.820;4.884;2023-03-21T12:53:57;16.10;99.90
15906;DHT22;8051;50.820;4.884;2023-03-21T12:56:29;15.90;99.90
15906;DHT22;8051;50.820;4.884;2023-03-21T12:59:01;15.70;99.90
15906;DHT22;8051;50.820;4.884;2023-03-21T13:01:32;15.70;99.90
15906;DHT22;8051;50.820;4.884;2023-03-21T13:04:25;15.60;99.90
15906;DHT22;8051;50.820;4.884;2023-03-21T13:06:55;15.70;99.90
15906;DHT22;8051;50.820;4.884;2023-03-21T13:09:30;15.90;99.90
15906;DHT22;8051;50.820;4.884;2023-03-21T13:12:04;16.10;99.90
15906;DHT22;8051;50.820;4.884;2023-03-21T13:14:37;16.20;99.90
15906;DHT22;8051;50.820;4.884;2023-03-21T13:17:12;16.40;99.90
15906;DHT22;8051;50.820;4.884;2023-03-21T13:19:43;16.30;99.90
15906;DHT22;8051;50.820;4.884;2023-03-21T13:22:21;16.30;99.90
15906;DHT22;8051;50.820;4.884;2023-03-21T13:24:56;16.40;99.90
15906;DHT22;8051;50.820;4.884;2023-03-21T13:27:27;16.60;99.90
15906;DHT22;8051;50.820;4.884;2023-03-21T13:30:00;16.50;99.90
15906;DHT22;8051;50.820;4.884;2023-03-21T13:32:34;16.50;99.90
15906;DHT22;8051;50.820;4.884;2023-03-21T13:35:14;16.30;99.90
15906;DHT22;8051;50.820;4.884;2023-03-21T13:37:52;16.40;99.90
15906;DHT22;8051;50.820;4.884;2023-03-21T13:40:22;16.70;99.90
15906;DHT22;8051;50.820;4.884;2023-03-21T13:42:52;16.60;99.90
15906;DHT22;8051;50.820;4.884;2023-03-21T13:45:26;16.50;99.90
15906;DHT22;8051;50.820;4.884;2023-03-21T13:47:56;16.60;99.90
15906;DHT22;8051;50.820;4.884;2023-03-21T13:50:33;16.80;99.90
15906;DHT22;8051;50.820;4.884;2023-03-21T13:53:17;17.00;99.90
15906;DHT22;8051;50.820;4.884;2023-03-21T13:55:46;17.10;99.90
15906;DHT22;8051;50.820;4.884;2023-03-21T13:58:31;17.20;99.90
15906;DHT22;8051;50.820;4.884;2023-03-21T14:03:59;17.00;99.90
15906;DHT22;8051;50.820;4.884;2023-03-21T14:06:35;16.90;99.90
15906;DHT22;8051;50.820;4.884;2023-03-21T14:09:04;16.90;99.90
15906;DHT22;8051;50.820;4.884;2023-03-21T14:11:32;16.70;99.90
15906;DHT22;8051;50.820;4.884;2023-03-21T14:14:01;16.60;99.90
15906;DHT22;8051;50.820;4.884;2023-03-21T14:16:29;16.40;99.90
15906;DHT22;8051;50.820;4.884;2023-03-21T14:19:02;16.20;99.90
15906;DHT22;8051;50.820;4.884;2023-03-21T14:21:31;16.20;99.90
15906;DHT22;8051;50.820;4.884;2023-03-21T14:24:02;16.10;99.90
15906;DHT22;8051;50.820;4.884;2023-03-21T14:26:31;16.30;99.90
15906;DHT22;8051;50.820;4.884;2023-03-21T14:29:01;16.40;99.90
15906;DHT22;8051;50.820;4.884;2023-03-21T14:31:31;16.60;99.90
15906;DHT22;8051;50.820;4.884;2023-03-21T14:34:01;16.50;99.90
15906;DHT22;8051;50.820;4.884;2023-03-21T14:36:31;16.50;99.90
15906;DHT22;8051;50.820;4.884;2023-03-21T14:39:05;16.60;99.90
15906;DHT22;8051;50.820;4.884;2023-03-21T14:41:43;16.80;99.90
15906;DHT22;8051;50.820;4.884;2023-03-21T14:44:14;17.10;99.90
15906;DHT22;8051;50.820;4.884;2023-03-21T14:46:42;17.00;99.90
15906;DHT22;8051;50.820;4.884;2023-03-21T14:49:19;17.20;99.90
15906;DHT22;8051;50.820;4.884;2023-03-21T14:51:47;17.30;99.90
15906;DHT22;8051;50.820;4.884;2023-03-21T14:54:17;17.30;99.90
15906;DHT22;8051;50.820;4.884;2023-03-21T14:56:47;16.90;99.90
15906;DHT22;8051;50.820;4.884;2023-03-21T14:59:19;16.70;99.90
15906;DHT22;8051;50.820;4.884;2023-03-21T15:01:49;16.80;99.90
15906;DHT22;8051;50.820;4.884;2023-03-21T15:04:19;16.70;99.90
15906;DHT22;8051;50.820;4.884;2023-03-21T15:06:50;16.50;99.90
15906;DHT22;8051;50.820;4.884;2023-03-21T15:09:18;16.40;99.90
15906;DHT22;8051;50.820;4.884;2023-03-21T15:11:49;16.20;99.90
15906;DHT22;8051;50.820;4.884;2023-03-21T15:14:19;15.90;99.90
15906;DHT22;8051;50.820;4.884;2023-03-21T15:16:48;15.70;99.90
15906;DHT22;8051;50.820;4.884;2023-03-21T15:19:24;15.40;99.90
15906;DHT22;8051;50.820;4.884;2023-03-21T15:21:56;15.20;99.90
15906;DHT22;8051;50.820;4.884;2023-03-21T15:24:28;15.10;99.90
15906;DHT22;8051;50.820;4.884;2023-03-21T15:27:03;15.00;99.90
15906;DHT22;8051;50.820;4.884;2023-03-21T15:29:32;14.90;99.90
15906;DHT22;8051;50.820;4.884;2023-03-21T15:32:03;15.00;99.90
15906;DHT22;8051;50.820;4.884;2023-03-21T15:34:37;15.00;99.90
15906;DHT22;8051;50.820;4.884;2023-03-21T15:37:06;15.00;99.90
15906;DHT22;8051;50.820;4.884;2023-03-21T15:39:35;15.00;99.90
15906;DHT22;8051;50.820;4.884;2023-03-21T15:42:26;15.00;99.90
15906;DHT22;8051;50.820;4.884;2023-03-21T15:44:57;14.90;99.90
15906;DHT22;8051;50.820;4.884;2023-03-21T15:47:52;14.90;99.90
15906;DHT22;8051;50.820;4.884;2023-03-21T15:50:32;14.80;99.90
15906;DHT22;8051;50.820;4.884;2023-03-21T15:53:02;14.80;99.90
15906;DHT22;8051;50.820;4.884;2023-03-21T15:55:34;14.70;99.90
15906;DHT22;8051;50.820;4.884;2023-03-21T15:58:04;14.70;99.90
15906;DHT22;8051;50.820;4.884;2023-03-21T16:00:37;14.50;99.90
15906;DHT22;8051;50.820;4.884;2023-03-21T16:03:08;14.40;99.90
15906;DHT22;8051;50.820;4.884;2023-03-21T16:05:37;14.50;99.90
15906;DHT22;8051;50.820;4.884;2023-03-21T16:08:16;14.40;99.90
15906;DHT22;8051;50.820;4.884;2023-03-21T16:10:44;14.20;99.90
15906;DHT22;8051;50.820;4.884;2023-03-21T16:13:13;14.10;99.90
15906;DHT22;8051;50.820;4.884;2023-03-21T16:15:41;14.00;99.90
15906;DHT22;8051;50.820;4.884;2023-03-21T16:18:13;14.00;99.90
15906;DHT22;8051;50.820;4.884;2023-03-21T16:20:43;14.00;99.90
15906;DHT22;8051;50.820;4.884;2023-03-21T16:23:12;14.00;99.90
15906;DHT22;8051;50.820;4.884;2023-03-21T16:25:40;14.10;99.90
15906;DHT22;8051;50.820;4.884;2023-03-21T16:28:12;14.10;99.90
15906;DHT22;8051;50.820;4.884;2023-03-21T16:30:40;14.00;99.90